createdAt,value
2017-02-13T00:00:53.400Z,15.65
2017-02-13T00:02:03.709Z,15.6
2017-02-13T00:03:13.497Z,15.65
2017-02-13T00:04:23.420Z,15.72
2017-02-13T00:05:33.372Z,15.67
2017-02-13T00:06:42.892Z,15.69
2017-02-13T00:07:53.619Z,15.65
2017-02-13T00:09:03.419Z,15.73
2017-02-13T00:10:13.332Z,15.51
2017-02-13T00:11:22.853Z,15.54
2017-02-13T00:12:33.187Z,15.63
2017-02-13T00:13:43.503Z,15.73
2017-02-13T00:14:54.098Z,15.69
2017-02-13T00:16:04.828Z,15.72
2017-02-13T00:17:15.139Z,15.76
2017-02-13T00:18:25.496Z,15.7
2017-02-13T00:19:35.024Z,15.87
2017-02-13T00:20:45.261Z,15.85
2017-02-13T00:21:55.582Z,15.76
2017-02-13T00:23:05.525Z,15.69
2017-02-13T00:24:15.461Z,15.69
2017-02-13T00:25:24.998Z,15.76
2017-02-13T00:26:35.180Z,15.6
2017-02-13T00:27:45.892Z,15.67
2017-02-13T00:28:55.827Z,15.72
2017-02-13T00:30:06.172Z,15.54
2017-02-13T00:31:16.883Z,15.66
2017-02-13T00:32:27.484Z,15.67
2017-02-13T00:33:36.989Z,15.67
2017-02-13T00:34:46.937Z,15.57
2017-02-13T00:35:56.469Z,15.51
2017-02-13T00:37:06.390Z,15.57
2017-02-13T00:38:16.186Z,15.52
2017-02-13T00:39:25.736Z,15.55
2017-02-13T00:40:35.253Z,15.52
2017-02-13T00:41:45.162Z,15.55
2017-02-13T00:42:54.304Z,15.55
2017-02-13T00:44:04.517Z,15.65
2017-02-13T00:45:15.241Z,15.72
2017-02-13T00:46:25.578Z,15.75
2017-02-13T00:47:35.906Z,15.7
2017-02-13T00:48:46.626Z,15.73
2017-02-13T00:49:56.792Z,15.72
2017-02-13T00:51:06.309Z,15.73
2017-02-13T00:52:16.235Z,15.62
2017-02-13T00:53:26.949Z,15.69
2017-02-13T00:54:37.674Z,15.63
2017-02-13T00:55:48.501Z,15.67
2017-02-13T00:56:58.425Z,15.62
2017-02-13T00:58:09.121Z,15.54
2017-02-13T00:59:19.035Z,15.67
2017-02-13T01:00:29.352Z,15.72
2017-02-13T01:01:39.573Z,15.62
2017-02-13T01:02:48.717Z,15.52
2017-02-13T01:03:59.031Z,15.62
2017-02-13T01:05:09.336Z,15.72
2017-02-13T01:06:20.059Z,15.8
2017-02-13T01:07:30.253Z,15.67
2017-02-13T01:08:39.798Z,15.72
2017-02-13T01:09:48.561Z,15.69
2017-02-13T01:10:58.880Z,15.8
2017-02-13T01:12:08.425Z,15.75
2017-02-13T01:13:19.391Z,15.59
2017-02-13T01:14:29.726Z,15.65
2017-02-13T01:15:39.244Z,15.69
2017-02-13T01:16:48.787Z,15.48
2017-02-13T01:17:59.117Z,15.54
2017-02-13T01:19:10.101Z,15.5
2017-02-13T01:20:20.537Z,15.55
2017-02-13T01:21:30.082Z,15.55
2017-02-13T01:22:40.013Z,15.52
2017-02-13T01:23:49.941Z,15.27
2017-02-13T01:25:00.123Z,15.43
2017-02-13T01:26:10.462Z,15.48
2017-02-13T01:27:20.369Z,15.48
2017-02-13T01:28:31.108Z,15.45
2017-02-13T01:29:40.646Z,15.48
2017-02-13T01:30:50.431Z,15.55
2017-02-13T01:32:00.747Z,15.59
2017-02-13T01:33:11.079Z,15.52
2017-02-13T01:34:21.013Z,15.45
2017-02-13T01:35:31.330Z,15.57
2017-02-13T01:36:41.107Z,15.51
2017-02-13T01:37:50.243Z,15.44
2017-02-13T01:39:00.195Z,15.45
2017-02-13T01:40:09.344Z,15.39
2017-02-13T01:41:19.675Z,15.51
2017-02-13T01:42:30.305Z,15.44
2017-02-13T01:43:40.261Z,15.59
2017-02-13T01:44:50.194Z,15.57
2017-02-13T01:46:00.112Z,15.66
2017-02-13T01:47:10.037Z,15.55
2017-02-13T01:48:19.851Z,15.52
2017-02-13T01:49:29.470Z,15.76
2017-02-13T01:50:39.377Z,15.63
2017-02-13T01:51:48.903Z,15.67
2017-02-13T01:52:59.275Z,15.69
2017-02-13T01:54:09.438Z,15.57
2017-02-13T01:55:19.350Z,15.65
2017-02-13T01:56:29.849Z,15.73
2017-02-13T01:57:39.774Z,15.62
2017-02-13T01:58:50.500Z,15.51
2017-02-13T02:00:00.740Z,15.65
2017-02-13T02:01:10.655Z,15.62
2017-02-13T02:02:20.989Z,15.47
2017-02-13T02:03:30.173Z,15.52
2017-02-13T02:04:41.013Z,15.63
2017-02-13T02:05:51.596Z,15.65
2017-02-13T02:07:01.536Z,15.54
2017-02-13T02:08:11.847Z,15.51
2017-02-13T02:09:21.364Z,15.67
2017-02-13T02:10:31.279Z,15.55
2017-02-13T02:11:41.055Z,15.51
2017-02-13T02:12:51.406Z,15.39
2017-02-13T02:14:02.118Z,15.41
2017-02-13T02:15:12.450Z,15.45
2017-02-13T02:16:22.760Z,15.51
2017-02-13T02:17:33.337Z,15.51
2017-02-13T02:18:43.642Z,15.5
2017-02-13T02:19:53.178Z,15.41
2017-02-13T02:21:03.175Z,15.37
2017-02-13T02:22:12.336Z,15.37
2017-02-13T02:23:23.297Z,15.45
2017-02-13T02:24:34.025Z,15.47
2017-02-13T02:25:43.954Z,15.47
2017-02-13T02:26:53.906Z,15.48
2017-02-13T02:28:04.214Z,15.6
2017-02-13T02:29:15.219Z,15.65
2017-02-13T02:30:25.123Z,15.65
2017-02-13T02:31:35.442Z,15.66
2017-02-13T02:32:45.751Z,15.6
2017-02-13T02:33:56.071Z,15.6
2017-02-13T02:35:06.305Z,15.59
2017-02-13T02:36:16.627Z,15.48
2017-02-13T02:37:26.553Z,15.33
2017-02-13T02:38:36.872Z,15.48
2017-02-13T02:39:46.814Z,15.6
2017-02-13T02:40:57.039Z,15.41
2017-02-13T02:42:07.755Z,15.41
2017-02-13T02:43:18.068Z,15.47
2017-02-13T02:44:28.389Z,15.37
2017-02-13T02:45:38.725Z,15.48
2017-02-13T02:46:48.897Z,15.51
2017-02-13T02:47:59.225Z,15.54
2017-02-13T02:49:09.548Z,15.35
2017-02-13T02:50:19.094Z,15.39
2017-02-13T02:51:29.450Z,15.45
2017-02-13T02:52:40.423Z,15.51
2017-02-13T02:53:50.384Z,15.51
2017-02-13T02:55:00.693Z,15.44
2017-02-13T02:56:11.427Z,15.48
2017-02-13T02:57:21.355Z,15.5
2017-02-13T02:58:31.975Z,15.47
2017-02-13T02:59:42.307Z,15.51
2017-02-13T03:00:52.235Z,15.48
2017-02-13T03:02:02.160Z,15.33
2017-02-13T03:03:12.882Z,15.41
2017-02-13T03:04:23.062Z,15.36
2017-02-13T03:05:32.201Z,15.39
2017-02-13T03:06:42.620Z,15.26
2017-02-13T03:07:52.945Z,15.17
2017-02-13T03:09:03.292Z,15.45
2017-02-13T03:10:13.875Z,15.45
2017-02-13T03:11:24.592Z,15.5
2017-02-13T03:12:34.513Z,15.54
2017-02-13T03:13:44.834Z,15.51
2017-02-13T03:14:55.556Z,15.59
2017-02-13T03:16:06.157Z,15.51
2017-02-13T03:17:16.086Z,15.62
2017-02-13T03:18:26.080Z,15.66
2017-02-13T03:19:36.419Z,15.5
2017-02-13T03:20:45.988Z,15.55
2017-02-13T03:21:56.550Z,15.48
2017-02-13T03:23:06.884Z,15.26
2017-02-13T03:24:17.599Z,15.41
2017-02-13T03:25:27.534Z,15.5
2017-02-13T03:26:37.842Z,15.62
2017-02-13T03:27:48.066Z,15.51
2017-02-13T03:28:57.979Z,15.43
2017-02-13T03:30:07.922Z,15.41
2017-02-13T03:31:17.458Z,15.45
2017-02-13T03:32:26.982Z,15.35
2017-02-13T03:33:36.763Z,15.35
2017-02-13T03:34:46.671Z,15.25
2017-02-13T03:35:56.978Z,15.3
2017-02-13T03:37:06.884Z,15.37
2017-02-13T03:38:16.844Z,15.36
2017-02-13T03:39:27.866Z,15.22
2017-02-13T03:40:37.795Z,15.23
2017-02-13T03:41:48.508Z,15.39
2017-02-13T03:42:58.425Z,15.29
2017-02-13T03:44:07.946Z,15.33
2017-02-13T03:45:17.739Z,15.3
2017-02-13T03:46:27.662Z,15.29
2017-02-13T03:47:37.206Z,15.27
2017-02-13T03:48:47.157Z,15.32
2017-02-13T03:49:57.467Z,15.35
2017-02-13T03:51:08.043Z,15.19
2017-02-13T03:52:18.339Z,15.26
2017-02-13T03:53:27.899Z,15.39
2017-02-13T03:54:38.205Z,15.48
2017-02-13T03:55:48.950Z,15.45
2017-02-13T03:56:59.528Z,15.43
2017-02-13T03:58:09.455Z,15.5
2017-02-13T03:59:19.757Z,15.54
2017-02-13T04:00:29.298Z,15.44
2017-02-13T04:01:39.209Z,15.45
2017-02-13T04:02:49.403Z,15.45
2017-02-13T04:03:59.334Z,15.44
2017-02-13T04:05:08.878Z,15.5
2017-02-13T04:06:19.209Z,15.47
2017-02-13T04:07:29.138Z,15.52
2017-02-13T04:08:39.334Z,15.39
2017-02-13T04:09:48.860Z,15.43
2017-02-13T04:10:58.797Z,15.43
2017-02-13T04:12:08.342Z,15.41
2017-02-13T04:13:18.649Z,15.35
2017-02-13T04:14:27.634Z,15.32
2017-02-13T04:15:37.144Z,15.32
2017-02-13T04:16:47.468Z,15.3
2017-02-13T04:17:56.989Z,15.41
2017-02-13T04:19:06.911Z,15.19
2017-02-13T04:20:17.077Z,15.27
2017-02-13T04:21:27.391Z,15.26
2017-02-13T04:22:37.707Z,15.3
2017-02-13T04:23:48.008Z,15.25
2017-02-13T04:24:58.319Z,15.37
2017-02-13T04:26:08.956Z,15.37
2017-02-13T04:27:18.886Z,15.3
2017-02-13T04:28:29.583Z,15.37
2017-02-13T04:29:39.109Z,15.27
2017-02-13T04:30:49.027Z,15.33
2017-02-13T04:31:59.984Z,15.27
2017-02-13T04:33:10.313Z,15.14
2017-02-13T04:34:20.233Z,15.12
2017-02-13T04:35:29.782Z,15.26
2017-02-13T04:36:40.094Z,15.3
2017-02-13T04:37:49.931Z,15.36
2017-02-13T04:39:00.251Z,15.52
2017-02-13T04:40:10.596Z,15.43
2017-02-13T04:41:20.911Z,15.41
2017-02-13T04:42:31.638Z,15.44
2017-02-13T04:43:41.411Z,15.43
2017-02-13T04:44:50.941Z,15.39
2017-02-13T04:46:01.261Z,15.45
2017-02-13T04:47:11.979Z,15.5
2017-02-13T04:48:22.285Z,15.51
2017-02-13T04:49:32.471Z,15.52
2017-02-13T04:50:42.780Z,15.35
2017-02-13T04:51:52.709Z,15.48
2017-02-13T04:53:02.975Z,15.47
2017-02-13T04:54:13.285Z,15.5
2017-02-13T04:55:23.843Z,15.43
2017-02-13T04:56:33.371Z,15.48
2017-02-13T04:57:43.307Z,15.48
2017-02-13T04:58:53.917Z,15.51
2017-02-13T05:00:03.846Z,15.52
2017-02-13T05:01:14.448Z,15.48
2017-02-13T05:02:24.779Z,15.3
2017-02-13T05:03:34.714Z,15.22
2017-02-13T05:04:44.244Z,15.27
2017-02-13T05:05:53.786Z,15.33
2017-02-13T05:07:04.385Z,15.27
2017-02-13T05:08:14.355Z,15.22
2017-02-13T05:09:24.662Z,15.39
2017-02-13T05:10:34.962Z,15.3
2017-02-13T05:11:44.508Z,15.44
2017-02-13T05:12:55.085Z,15.35
2017-02-13T05:14:04.280Z,15.35
2017-02-13T05:15:14.600Z,15.36
2017-02-13T05:16:24.125Z,15.26
2017-02-13T05:17:34.846Z,15.19
2017-02-13T05:18:45.484Z,15.18
2017-02-13T05:19:54.628Z,15.29
2017-02-13T05:21:04.563Z,15.26
2017-02-13T05:22:14.889Z,15.33
2017-02-13T05:23:24.427Z,15.26
2017-02-13T05:24:34.613Z,15.37
2017-02-13T05:25:44.928Z,15.33
2017-02-13T05:26:55.229Z,15.32
2017-02-13T05:28:05.939Z,15.22
2017-02-13T05:29:16.253Z,15.33
2017-02-13T05:30:26.827Z,15.27
2017-02-13T05:31:37.157Z,15.26
2017-02-13T05:32:47.080Z,15.15
2017-02-13T05:33:57.381Z,15.17
2017-02-13T05:35:06.918Z,15.18
2017-02-13T05:36:17.548Z,15.12
2017-02-13T05:37:28.245Z,15.18
2017-02-13T05:38:37.788Z,15.23
2017-02-13T05:39:48.106Z,15.19
2017-02-13T05:40:58.818Z,15.11
2017-02-13T05:42:09.395Z,15.15
2017-02-13T05:43:20.104Z,15.08
2017-02-13T05:44:30.061Z,15.1
2017-02-13T05:45:40.387Z,15.1
2017-02-13T05:46:50.705Z,15.1
2017-02-13T05:48:01.353Z,15.14
2017-02-13T05:49:11.301Z,15.17
2017-02-13T05:50:21.228Z,15.15
2017-02-13T05:51:31.541Z,15.18
2017-02-13T05:52:41.055Z,15.12
2017-02-13T05:53:51.629Z,15.18
2017-02-13T05:55:01.559Z,15.18
2017-02-13T05:56:11.481Z,15.15
2017-02-13T05:57:21.409Z,15.11
2017-02-13T05:58:32.122Z,15.1
2017-02-13T05:59:42.728Z,15.1
2017-02-13T06:00:53.050Z,15.19
2017-02-13T06:02:03.377Z,15.04
2017-02-13T06:03:13.716Z,15.02
2017-02-13T06:04:24.418Z,15.15
2017-02-13T06:05:35.378Z,15.17
2017-02-13T06:06:45.309Z,15.25
2017-02-13T06:07:55.223Z,15.07
2017-02-13T06:09:05.129Z,15.12
2017-02-13T06:10:15.836Z,15.15
2017-02-13T06:11:25.607Z,15.22
2017-02-13T06:12:35.950Z,15.18
2017-02-13T06:13:46.291Z,15.19
2017-02-13T06:14:56.641Z,15.15
2017-02-13T06:16:06.965Z,15.27
2017-02-13T06:17:17.176Z,15.22
2017-02-13T06:18:27.481Z,15.14
2017-02-13T06:19:37.402Z,15.1
2017-02-13T06:20:48.121Z,15.14
2017-02-13T06:21:58.055Z,15
2017-02-13T06:23:07.436Z,15.11
2017-02-13T06:24:18.148Z,15.19
2017-02-13T06:25:28.075Z,15.12
2017-02-13T06:26:38.393Z,15.07
2017-02-13T06:27:49.101Z,14.99
2017-02-13T06:28:58.942Z,14.94
2017-02-13T06:30:09.270Z,15.15
2017-02-13T06:31:19.182Z,15.17
2017-02-13T06:32:29.503Z,15.15
2017-02-13T06:33:39.541Z,15.07
2017-02-13T06:34:50.128Z,15.1
2017-02-13T06:36:00.072Z,15.15
2017-02-13T06:37:09.605Z,15.17
2017-02-13T06:38:19.931Z,15.19
2017-02-13T06:39:29.901Z,15.19
2017-02-13T06:40:40.910Z,15.29
2017-02-13T06:41:51.647Z,15
2017-02-13T06:43:01.189Z,15.07
2017-02-13T06:44:11.918Z,15.04
2017-02-13T06:45:21.848Z,14.97
2017-02-13T06:46:32.818Z,15.17
2017-02-13T06:47:42.766Z,15.12
2017-02-13T06:48:52.711Z,15.22
2017-02-13T06:50:03.418Z,15.19
2017-02-13T06:51:13.373Z,15.29
2017-02-13T06:52:23.956Z,15.26
2017-02-13T06:53:33.905Z,15.18
2017-02-13T06:54:44.225Z,15.29
2017-02-13T06:55:54.954Z,15.32
2017-02-13T06:57:04.921Z,15.23
2017-02-13T06:58:15.132Z,15.19
2017-02-13T06:59:25.462Z,15.29
2017-02-13T07:00:35.798Z,15.35
2017-02-13T07:01:46.528Z,15.39
2017-02-13T07:02:56.467Z,15.36
2017-02-13T07:04:07.081Z,15.26
2017-02-13T07:05:17.395Z,15.27
2017-02-13T07:06:27.718Z,15.27
2017-02-13T07:07:38.019Z,15.23
2017-02-13T07:08:48.773Z,15.19
2017-02-13T07:09:59.359Z,15.25
2017-02-13T07:11:10.129Z,15.19
2017-02-13T07:12:20.061Z,15.11
2017-02-13T07:13:30.023Z,15.19
2017-02-13T07:14:39.962Z,15.19
2017-02-13T07:15:50.564Z,15.12
2017-02-13T07:17:00.934Z,15.33
2017-02-13T07:18:10.487Z,15.19
2017-02-13T07:19:20.841Z,15.18
2017-02-13T07:20:31.586Z,15.22
2017-02-13T07:21:42.213Z,15.23
2017-02-13T07:22:52.541Z,15.22
2017-02-13T07:24:02.898Z,15.27
2017-02-13T07:25:13.646Z,15.22
2017-02-13T07:26:24.392Z,15.32
2017-02-13T07:27:34.581Z,15.3
2017-02-13T07:28:44.907Z,15.39
2017-02-13T07:29:54.058Z,15.32
2017-02-13T07:31:04.407Z,15.39
2017-02-13T07:32:13.933Z,15.36
2017-02-13T07:33:23.720Z,15.35
2017-02-13T07:34:33.305Z,15.44
2017-02-13T07:35:43.235Z,15.54
2017-02-13T07:36:53.967Z,15.43
2017-02-13T07:38:04.287Z,15.45
2017-02-13T07:39:15.035Z,15.47
2017-02-13T07:40:25.747Z,15.55
2017-02-13T07:41:35.351Z,15.59
2017-02-13T07:42:46.099Z,15.5
2017-02-13T07:43:56.726Z,15.51
2017-02-13T07:45:06.650Z,15.6
2017-02-13T07:46:16.994Z,15.52
2017-02-13T07:47:27.515Z,15.57
2017-02-13T07:48:37.863Z,15.51
2017-02-13T07:49:47.795Z,15.6
2017-02-13T07:50:58.532Z,15.62
2017-02-13T07:52:07.705Z,15.8
2017-02-13T07:53:18.500Z,15.57
2017-02-13T07:54:28.706Z,15.69
2017-02-13T07:55:38.255Z,15.59
2017-02-13T07:56:48.568Z,15.6
2017-02-13T07:57:58.910Z,15.67
2017-02-13T07:59:09.280Z,15.72
2017-02-13T08:00:20.287Z,15.66
2017-02-13T08:01:30.307Z,15.63
2017-02-13T08:02:40.633Z,15.63
2017-02-13T08:03:50.943Z,15.62
2017-02-13T08:05:01.662Z,15.67
2017-02-13T08:06:12.733Z,15.59
2017-02-13T08:07:22.693Z,15.65
2017-02-13T08:08:32.226Z,15.59
2017-02-13T08:09:42.556Z,15.73
2017-02-13T08:10:52.889Z,15.59
2017-02-13T08:12:03.463Z,15.57
2017-02-13T08:13:13.814Z,15.62
2017-02-13T08:14:24.632Z,15.76
2017-02-13T08:15:34.959Z,15.76
2017-02-13T08:16:45.716Z,15.7
2017-02-13T08:17:55.920Z,15.81
2017-02-13T08:19:06.663Z,15.92
2017-02-13T08:20:16.613Z,15.76
2017-02-13T08:21:27.322Z,15.85
2017-02-13T08:22:37.647Z,15.84
2017-02-13T08:23:48.283Z,15.88
2017-02-13T08:24:58.207Z,15.9
2017-02-13T08:26:07.803Z,15.83
2017-02-13T08:27:18.128Z,15.98
2017-02-13T08:28:28.491Z,15.88
2017-02-13T08:29:38.302Z,15.99
2017-02-13T08:30:48.284Z,16.12
2017-02-13T08:31:59.054Z,16.02
2017-02-13T08:33:09.800Z,16
2017-02-13T08:34:20.144Z,16.08
2017-02-13T08:35:30.321Z,15.92
2017-02-13T08:36:40.658Z,15.99
2017-02-13T08:37:50.194Z,16.02
2017-02-13T08:39:00.567Z,15.88
2017-02-13T08:40:10.924Z,16.08
2017-02-13T08:41:21.899Z,16.03
2017-02-13T08:42:31.849Z,16.06
2017-02-13T08:43:41.805Z,15.83
2017-02-13T08:44:52.554Z,15.94
2017-02-13T08:46:03.290Z,15.87
2017-02-13T08:47:13.895Z,15.85
2017-02-13T08:48:24.647Z,15.98
2017-02-13T08:49:34.593Z,15.84
2017-02-13T08:50:45.302Z,15.92
2017-02-13T08:51:56.056Z,16.06
2017-02-13T08:53:06.658Z,15.88
2017-02-13T08:54:17.023Z,15.98
2017-02-13T08:55:27.826Z,15.84
2017-02-13T08:56:38.198Z,15.85
2017-02-13T08:57:48.535Z,15.94
2017-02-13T08:58:58.849Z,15.88
2017-02-13T09:00:08.863Z,16
2017-02-13T09:01:19.602Z,15.76
2017-02-13T09:02:29.197Z,15.94
2017-02-13T09:03:39.550Z,16.13
2017-02-13T09:04:49.922Z,16.03
2017-02-13T09:06:00.265Z,15.98
2017-02-13T09:07:10.219Z,15.99
2017-02-13T09:08:20.023Z,15.98
2017-02-13T09:09:30.407Z,15.94
2017-02-13T09:10:40.763Z,15.91
2017-02-13T09:11:51.508Z,16
2017-02-13T09:13:01.859Z,16.02
2017-02-13T09:14:12.468Z,16.02
2017-02-13T09:15:22.387Z,16.02
2017-02-13T09:16:32.333Z,16.03
2017-02-13T09:17:43.091Z,16.1
2017-02-13T09:18:53.418Z,16.09
2017-02-13T09:20:04.058Z,16.06
2017-02-13T09:21:14.405Z,16.21
2017-02-13T09:22:23.963Z,16.1
2017-02-13T09:23:34.277Z,16.05
2017-02-13T09:24:43.817Z,16.02
2017-02-13T09:25:54.764Z,16.02
2017-02-13T09:27:05.507Z,16.02
2017-02-13T09:28:15.829Z,16.06
2017-02-13T09:29:26.142Z,16.21
2017-02-13T09:30:36.076Z,16.1
2017-02-13T09:31:45.516Z,16.08
2017-02-13T09:32:55.435Z,16.03
2017-02-13T09:34:05.777Z,15.9
2017-02-13T09:35:15.714Z,16
2017-02-13T09:36:25.645Z,16.03
2017-02-13T09:37:36.217Z,16.02
2017-02-13T09:38:46.544Z,15.96
2017-02-13T09:39:57.273Z,16.02
2017-02-13T09:41:06.419Z,16
2017-02-13T09:42:16.341Z,16
2017-02-13T09:43:26.936Z,16.03
2017-02-13T09:44:37.297Z,16.09
2017-02-13T09:45:48.024Z,16.21
2017-02-13T09:46:58.377Z,16.24
2017-02-13T09:48:08.727Z,16.21
2017-02-13T09:49:19.724Z,16.25
2017-02-13T09:50:30.053Z,16.31
2017-02-13T09:51:40.367Z,16.25
2017-02-13T09:52:50.318Z,16.24
2017-02-13T09:54:01.036Z,16.21
2017-02-13T09:55:12.071Z,16.06
2017-02-13T09:56:22.790Z,16.05
2017-02-13T09:57:32.811Z,16.24
2017-02-13T09:58:43.165Z,16.29
2017-02-13T09:59:53.507Z,16.28
2017-02-13T10:01:04.183Z,16.24
2017-02-13T10:02:14.670Z,16.21
2017-02-13T10:03:25.100Z,16.24
2017-02-13T10:04:35.427Z,16.26
2017-02-13T10:05:45.377Z,16.29
2017-02-13T10:06:55.834Z,16.24
2017-02-13T10:08:06.576Z,16.24
2017-02-13T10:09:17.189Z,16.24
2017-02-13T10:10:27.149Z,16.29
2017-02-13T10:11:37.459Z,16.31
2017-02-13T10:12:48.456Z,16.17
2017-02-13T10:13:59.187Z,16.22
2017-02-13T10:15:09.117Z,16.26
2017-02-13T10:16:19.477Z,16.28
2017-02-13T10:17:29.797Z,16.28
2017-02-13T10:18:40.376Z,16.29
2017-02-13T10:19:49.154Z,16.24
2017-02-13T10:20:59.491Z,16.16
2017-02-13T10:22:09.428Z,16.28
2017-02-13T10:23:20.177Z,16.32
2017-02-13T10:24:30.866Z,16.18
2017-02-13T10:25:41.205Z,16.32
2017-02-13T10:26:51.140Z,16.36
2017-02-13T10:28:00.339Z,16.28
2017-02-13T10:29:10.297Z,16.4
2017-02-13T10:30:20.892Z,16.46
2017-02-13T10:31:31.628Z,16.32
2017-02-13T10:32:41.982Z,16.31
2017-02-13T10:33:52.583Z,16.44
2017-02-13T10:35:02.163Z,16.34
2017-02-13T10:36:12.355Z,16.44
2017-02-13T10:37:22.339Z,16.4
2017-02-13T10:38:32.270Z,16.4
2017-02-13T10:39:43.056Z,16.32
2017-02-13T10:40:52.996Z,16.4
2017-02-13T10:42:03.185Z,16.43
2017-02-13T10:43:12.725Z,16.41
2017-02-13T10:44:23.063Z,16.32
2017-02-13T10:45:33.390Z,16.31
2017-02-13T10:46:44.128Z,16.41
2017-02-13T10:47:55.116Z,16.28
2017-02-13T10:49:05.471Z,16.24
2017-02-13T10:50:15.410Z,16.28
2017-02-13T10:51:25.799Z,16.29
2017-02-13T10:52:36.532Z,16.32
2017-02-13T10:53:47.543Z,16.28
2017-02-13T10:54:58.292Z,16.36
2017-02-13T10:56:08.639Z,16.37
2017-02-13T10:57:18.980Z,16.32
2017-02-13T10:58:29.742Z,16.31
2017-02-13T10:59:39.991Z,16.17
2017-02-13T11:00:50.330Z,16.28
2017-02-13T11:02:00.275Z,16.29
2017-02-13T11:03:10.582Z,16.29
2017-02-13T11:04:20.917Z,16.37
2017-02-13T11:05:31.562Z,16.36
2017-02-13T11:06:41.527Z,16.44
2017-02-13T11:07:52.252Z,16.39
2017-02-13T11:09:02.584Z,16.34
2017-02-13T11:10:12.921Z,16.49
2017-02-13T11:11:23.904Z,16.39
2017-02-13T11:12:34.634Z,16.41
2017-02-13T11:13:45.346Z,16.41
2017-02-13T11:14:54.882Z,16.39
2017-02-13T11:16:05.608Z,16.47
2017-02-13T11:17:16.596Z,16.5
2017-02-13T11:18:26.946Z,16.51
2017-02-13T11:19:36.085Z,16.41
2017-02-13T11:20:46.418Z,16.49
2017-02-13T11:21:56.415Z,16.41
2017-02-13T11:23:06.999Z,16.49
2017-02-13T11:24:17.348Z,16.44
2017-02-13T11:25:28.091Z,16.46
2017-02-13T11:26:38.433Z,16.4
2017-02-13T11:27:48.760Z,16.57
2017-02-13T11:28:59.338Z,16.61
2017-02-13T11:30:09.655Z,16.61
2017-02-13T11:31:20.389Z,16.59
2017-02-13T11:32:31.115Z,16.41
2017-02-13T11:33:41.502Z,16.46
2017-02-13T11:34:52.118Z,16.54
2017-02-13T11:36:02.448Z,16.49
2017-02-13T11:37:12.785Z,16.5
2017-02-13T11:38:23.212Z,16.5
2017-02-13T11:39:33.928Z,16.55
2017-02-13T11:40:44.532Z,16.49
2017-02-13T11:41:55.266Z,16.54
2017-02-13T11:43:06.005Z,16.51
2017-02-13T11:44:16.332Z,16.49
2017-02-13T11:45:27.032Z,16.57
2017-02-13T11:46:37.623Z,16.59
2017-02-13T11:47:48.349Z,16.47
2017-02-13T11:48:59.070Z,16.55
2017-02-13T11:50:09.000Z,16.61
2017-02-13T11:51:19.352Z,16.68
2017-02-13T11:52:29.946Z,16.65
2017-02-13T11:53:40.306Z,16.68
2017-02-13T11:54:51.073Z,16.69
2017-02-13T11:56:00.988Z,16.72
2017-02-13T11:57:11.364Z,16.73
2017-02-13T11:58:22.448Z,16.66
2017-02-13T11:59:32.813Z,16.68
2017-02-13T12:00:43.140Z,16.74
2017-02-13T12:01:53.872Z,16.72
2017-02-13T12:03:04.242Z,16.69
2017-02-13T12:04:14.861Z,16.79
2017-02-13T12:05:25.205Z,16.79
2017-02-13T12:06:35.553Z,16.72
2017-02-13T12:07:45.495Z,16.82
2017-02-13T12:08:55.835Z,16.89
2017-02-13T12:10:06.426Z,16.77
2017-02-13T12:11:16.755Z,16.89
2017-02-13T12:12:27.112Z,16.73
2017-02-13T12:13:37.852Z,16.69
2017-02-13T12:14:47.763Z,16.76
2017-02-13T12:15:57.645Z,16.84
2017-02-13T12:17:07.985Z,16.91
2017-02-13T12:18:17.934Z,16.83
2017-02-13T12:19:28.657Z,16.91
2017-02-13T12:20:38.190Z,16.91
2017-02-13T12:21:48.827Z,16.86
2017-02-13T12:22:59.148Z,16.84
2017-02-13T12:24:09.512Z,16.79
2017-02-13T12:25:19.862Z,16.73
2017-02-13T12:26:30.589Z,16.73
2017-02-13T12:27:40.779Z,16.8
2017-02-13T12:28:50.727Z,16.84
2017-02-13T12:30:01.488Z,16.79
2017-02-13T12:31:11.429Z,16.72
2017-02-13T12:32:21.346Z,16.76
2017-02-13T12:33:31.544Z,16.73
2017-02-13T12:34:41.509Z,16.72
2017-02-13T12:35:51.475Z,16.64
2017-02-13T12:37:01.819Z,16.72
2017-02-13T12:38:12.557Z,16.79
2017-02-13T12:39:22.358Z,16.83
2017-02-13T12:40:33.061Z,16.83
2017-02-13T12:41:43.385Z,16.76
2017-02-13T12:42:52.931Z,16.74
2017-02-13T12:45:36.735Z,16.79
2017-02-13T12:46:47.086Z,16.84
2017-02-13T12:47:57.026Z,16.83
2017-02-13T12:49:07.220Z,16.68
2017-02-13T12:50:17.547Z,16.73
2017-02-13T12:51:27.720Z,16.65
2017-02-13T12:52:38.093Z,16.73
2017-02-13T12:53:48.027Z,16.92
2017-02-13T12:54:57.576Z,16.74
2017-02-13T12:56:08.315Z,16.65
2017-02-13T12:57:18.897Z,16.68
2017-02-13T12:58:29.245Z,16.69
2017-02-13T12:59:39.188Z,16.65
2017-02-13T13:00:49.936Z,16.74
2017-02-13T13:02:00.244Z,16.61
2017-02-13T13:03:10.881Z,16.59
2017-02-13T13:04:20.053Z,16.61
2017-02-13T13:05:29.626Z,16.51
2017-02-13T13:06:40.363Z,16.62
2017-02-13T13:07:50.691Z,16.62
2017-02-13T13:09:00.869Z,16.57
2017-02-13T13:10:11.604Z,16.51
2017-02-13T13:11:21.565Z,16.59
2017-02-13T13:12:31.090Z,16.68
2017-02-13T13:13:41.026Z,16.51
2017-02-13T13:14:50.821Z,16.62
2017-02-13T13:16:00.771Z,16.55
2017-02-13T13:17:11.485Z,16.57
2017-02-13T13:18:21.801Z,16.49
2017-02-13T13:19:32.149Z,16.59
2017-02-13T13:20:43.186Z,16.55
2017-02-13T13:21:53.528Z,16.61
2017-02-13T13:23:04.247Z,16.62
2017-02-13T13:24:14.575Z,16.74
2017-02-13T13:25:25.293Z,16.72
2017-02-13T13:26:36.257Z,16.86
2017-02-13T13:27:45.417Z,16.79
2017-02-13T13:28:55.752Z,16.79
2017-02-13T13:30:06.472Z,16.83
2017-02-13T13:31:16.026Z,16.73
2017-02-13T13:32:27.190Z,16.74
2017-02-13T13:33:37.913Z,16.74
2017-02-13T13:34:47.855Z,16.76
2017-02-13T13:35:58.594Z,16.73
2017-02-13T13:37:09.308Z,16.68
2017-02-13T13:38:19.894Z,16.69
2017-02-13T13:39:29.833Z,16.69
2017-02-13T13:40:40.657Z,16.74
2017-02-13T13:41:50.990Z,16.76
2017-02-13T13:43:01.320Z,16.87
2017-02-13T13:44:11.256Z,16.73
2017-02-13T13:45:21.175Z,16.76
2017-02-13T13:46:30.732Z,16.72
2017-02-13T13:47:41.075Z,16.74
2017-02-13T13:48:51.643Z,16.65
2017-02-13T13:50:01.593Z,16.74
2017-02-13T13:51:11.940Z,16.76
2017-02-13T13:52:22.674Z,16.65
2017-02-13T13:53:33.443Z,16.68
2017-02-13T13:54:44.020Z,16.68
2017-02-13T13:55:53.974Z,16.73
2017-02-13T13:57:03.915Z,16.76
2017-02-13T13:58:13.473Z,16.69
2017-02-13T13:59:23.390Z,16.82
2017-02-13T14:00:33.244Z,16.89
2017-02-13T14:01:42.801Z,16.64
2017-02-13T14:02:53.155Z,16.66
2017-02-13T14:04:03.142Z,16.82
2017-02-13T14:05:13.489Z,16.82
2017-02-13T14:06:24.119Z,16.72
2017-02-13T14:07:34.050Z,16.69
2017-02-13T14:08:43.982Z,16.72
2017-02-13T14:09:54.703Z,16.84
2017-02-13T14:11:05.440Z,16.79
2017-02-13T14:12:15.664Z,16.91
2017-02-13T14:13:25.979Z,16.83
2017-02-13T14:14:35.516Z,16.94
2017-02-13T14:15:45.463Z,16.89
2017-02-13T14:16:56.304Z,16.86
2017-02-13T14:18:05.467Z,16.82
2017-02-13T14:19:15.047Z,16.87
2017-02-13T14:20:24.971Z,16.87
2017-02-13T14:21:35.700Z,16.79
2017-02-13T14:22:46.031Z,16.8
2017-02-13T14:23:55.836Z,16.79
2017-02-13T14:25:06.585Z,16.91
2017-02-13T14:26:16.916Z,16.91
2017-02-13T14:27:27.274Z,16.86
2017-02-13T14:28:38.310Z,16.79
2017-02-13T14:29:48.234Z,16.84
2017-02-13T14:30:58.562Z,16.69
2017-02-13T14:32:07.733Z,16.72
2017-02-13T14:33:18.046Z,16.66
2017-02-13T14:34:28.623Z,16.86
2017-02-13T14:35:38.955Z,16.8
2017-02-13T14:36:49.296Z,16.73
2017-02-13T14:38:00.034Z,16.74
2017-02-13T14:39:10.757Z,16.76
2017-02-13T14:40:21.336Z,16.79
2017-02-13T14:41:31.288Z,16.89
2017-02-13T14:42:41.216Z,16.84
2017-02-13T14:43:51.175Z,16.92
2017-02-13T14:45:01.534Z,16.79
2017-02-13T14:46:11.788Z,16.66
2017-02-13T14:47:22.122Z,16.73
2017-02-13T14:48:32.060Z,16.74
2017-02-13T14:49:41.600Z,16.68
2017-02-13T14:50:51.979Z,16.73
2017-02-13T14:52:02.235Z,16.73
2017-02-13T14:53:12.583Z,16.69
2017-02-13T14:54:22.130Z,16.73
2017-02-13T14:55:32.489Z,16.68
2017-02-13T14:56:42.431Z,16.68
2017-02-13T14:57:52.616Z,16.66
2017-02-13T14:59:02.949Z,16.61
2017-02-13T15:00:12.106Z,16.61
2017-02-13T15:01:22.078Z,16.57
2017-02-13T15:02:32.021Z,16.76
2017-02-13T15:03:42.201Z,16.59
2017-02-13T15:04:52.156Z,16.5
2017-02-13T15:06:02.077Z,16.76
2017-02-13T15:07:12.043Z,16.66
2017-02-13T15:08:22.780Z,16.55
2017-02-13T15:09:33.809Z,16.64